createdAt,value
2017-09-05T00:00:50.925Z,972.14
2017-09-05T00:01:50.919Z,972.16
2017-09-05T00:02:50.915Z,972.18
2017-09-05T00:03:50.908Z,972.16
2017-09-05T00:04:50.902Z,972.14
2017-09-05T00:05:50.896Z,972.11
2017-09-05T00:06:50.891Z,972.12
2017-09-05T00:07:50.884Z,972.08
2017-09-05T00:08:50.878Z,972.09
2017-09-05T00:09:50.874Z,972.07
2017-09-05T00:10:50.868Z,972.1
2017-09-05T00:11:50.862Z,972.16
2017-09-05T00:12:50.855Z,972.16
2017-09-05T00:13:50.851Z,972.19
2017-09-05T00:14:50.846Z,972.17
2017-09-05T00:15:50.840Z,972.15
2017-09-05T00:16:50.834Z,972.19
2017-09-05T00:17:50.827Z,972.2
2017-09-05T00:18:50.823Z,972.23
2017-09-05T00:19:50.815Z,972.22
2017-09-05T00:20:50.811Z,972.25
2017-09-05T00:21:50.806Z,972.22
2017-09-05T00:22:50.798Z,972.24
2017-09-05T00:23:50.793Z,972.26
2017-09-05T00:24:50.887Z,972.28
2017-09-05T00:25:50.782Z,972.27
2017-09-05T00:26:50.776Z,972.25
2017-09-05T00:27:50.771Z,972.29
2017-09-05T00:28:50.765Z,972.25
2017-09-05T00:29:50.759Z,972.23
2017-09-05T00:30:50.752Z,972.22
2017-09-05T00:31:50.747Z,972.24
2017-09-05T00:32:50.742Z,972.22
2017-09-05T00:33:50.736Z,972.21
2017-09-05T00:34:50.730Z,972.23
2017-09-05T00:35:50.726Z,972.2
2017-09-05T00:36:50.718Z,972.26
2017-09-05T00:37:50.713Z,972.21
2017-09-05T00:38:50.707Z,972.2
2017-09-05T00:39:50.701Z,972.21
2017-09-05T00:40:50.696Z,972.18
2017-09-05T00:41:50.690Z,972.18
2017-09-05T00:42:50.684Z,972.22
2017-09-05T00:43:50.679Z,972.19
2017-09-05T00:44:50.674Z,972.18
2017-09-05T00:45:50.665Z,972.15
2017-09-05T00:46:50.661Z,972.16
2017-09-05T00:47:50.655Z,972.17
2017-09-05T00:48:50.650Z,972.13
2017-09-05T00:49:50.645Z,972.14
2017-09-05T00:50:50.637Z,972.12
2017-09-05T00:51:50.632Z,972.11
2017-09-05T00:52:50.625Z,972.15
2017-09-05T00:53:50.620Z,972.09
2017-09-05T00:54:50.615Z,972.09
2017-09-05T00:55:50.609Z,972.07
2017-09-05T00:56:50.603Z,972.04
2017-09-05T00:57:50.598Z,972.07
2017-09-05T00:58:50.591Z,972.04
2017-09-05T00:59:50.586Z,972
2017-09-05T01:00:50.584Z,972.04
2017-09-05T01:01:50.573Z,972.01
2017-09-05T01:02:50.568Z,972.01
2017-09-05T01:03:50.561Z,971.99
2017-09-05T01:04:50.557Z,972.04
2017-09-05T01:05:50.552Z,971.96
2017-09-05T01:06:50.546Z,971.99
2017-09-05T01:07:50.539Z,971.99
2017-09-05T01:08:50.534Z,972
2017-09-05T01:09:50.527Z,971.98
2017-09-05T01:10:50.522Z,972.02
2017-09-05T01:11:50.517Z,971.99
2017-09-05T01:12:50.611Z,972.02
2017-09-05T01:13:50.507Z,972.06
2017-09-05T01:14:50.501Z,972.06
2017-09-05T01:15:50.494Z,972.04
2017-09-05T01:16:50.490Z,972.05
2017-09-05T01:17:50.483Z,972.03
2017-09-05T01:18:50.478Z,972.05
2017-09-05T01:19:50.472Z,972.02
2017-09-05T01:20:50.466Z,972.01
2017-09-05T01:21:50.459Z,972.07
2017-09-05T01:22:50.453Z,972.03
2017-09-05T01:23:50.450Z,972.06
2017-09-05T01:24:50.443Z,972.03
2017-09-05T01:25:50.436Z,972.03
2017-09-05T01:26:50.531Z,972.03
2017-09-05T01:27:50.426Z,972.04
2017-09-05T01:28:50.520Z,972.03
2017-09-05T01:29:50.413Z,971.99
2017-09-05T01:30:50.408Z,972.05
2017-09-05T01:31:50.403Z,971.98
2017-09-05T01:32:50.396Z,972.03
2017-09-05T01:33:50.389Z,972.02
2017-09-05T01:34:50.385Z,972.04
2017-09-05T01:35:50.378Z,972.06
2017-09-05T01:36:50.372Z,972.09
2017-09-05T01:37:50.367Z,972.11
2017-09-05T01:38:50.362Z,972.04
2017-09-05T01:39:50.355Z,972.08
2017-09-05T01:40:50.350Z,972.08
2017-09-05T01:41:50.343Z,972.13
2017-09-05T01:42:50.338Z,972.04
2017-09-05T01:43:50.331Z,972.08
2017-09-05T01:44:50.326Z,972.08
2017-09-05T01:45:50.321Z,972.06
2017-09-05T01:46:50.315Z,972.04
2017-09-05T01:47:50.308Z,972.03
2017-09-05T01:48:50.302Z,972.03
2017-09-05T01:49:50.298Z,972.05
2017-09-05T01:50:50.291Z,972.05
2017-09-05T01:51:50.286Z,972.02
2017-09-05T01:52:50.379Z,972.08
2017-09-05T01:53:50.273Z,972.02
2017-09-05T01:54:50.267Z,972.07
2017-09-05T01:55:50.263Z,972.03
2017-09-05T01:56:50.266Z,972.08
2017-09-05T01:57:50.250Z,972.07
2017-09-05T01:58:50.245Z,972.1
2017-09-05T01:59:50.239Z,972.05
2017-09-05T02:00:50.233Z,972.08
2017-09-05T02:01:50.229Z,972.05
2017-09-05T02:02:50.221Z,972.08
2017-09-05T02:03:50.216Z,972.06
2017-09-05T02:04:50.210Z,972.03
2017-09-05T02:05:50.202Z,972.01
2017-09-05T02:06:50.198Z,972.04
2017-09-05T02:07:50.193Z,972.02
2017-09-05T02:08:50.186Z,971.99
2017-09-05T02:09:50.179Z,971.99
2017-09-05T02:10:50.174Z,972
2017-09-05T02:11:50.168Z,971.97
2017-09-05T02:12:50.162Z,971.95
2017-09-05T02:13:50.157Z,971.96
2017-09-05T02:14:50.151Z,971.94
2017-09-05T02:15:50.249Z,971.97
2017-09-05T02:16:50.140Z,971.93
2017-09-05T02:17:50.134Z,971.87
2017-09-05T02:18:50.127Z,971.94
2017-09-05T02:19:50.123Z,971.89
2017-09-05T02:20:50.116Z,971.92
2017-09-05T02:21:50.108Z,971.88
2017-09-05T02:22:50.105Z,971.94
2017-09-05T02:23:50.199Z,971.92
2017-09-05T02:24:50.094Z,971.92
2017-09-05T02:25:50.085Z,971.9
2017-09-05T02:26:50.082Z,971.91
2017-09-05T02:27:50.074Z,971.93
2017-09-05T02:28:50.070Z,971.92
2017-09-05T02:29:50.062Z,971.9
2017-09-05T02:30:50.058Z,971.96
2017-09-05T02:31:50.050Z,971.94
2017-09-05T02:32:50.046Z,971.98
2017-09-05T02:33:50.039Z,971.96
2017-09-05T02:34:50.033Z,971.94
2017-09-05T02:35:50.027Z,971.93
2017-09-05T02:36:50.021Z,971.94
2017-09-05T02:37:50.015Z,971.89
2017-09-05T02:38:50.039Z,971.89
2017-09-05T02:39:50.004Z,971.86
2017-09-05T02:40:49.998Z,971.86
2017-09-05T02:41:49.992Z,971.83
2017-09-05T02:42:49.985Z,971.83
2017-09-05T02:43:49.981Z,971.84
2017-09-05T02:44:49.975Z,971.85
2017-09-05T02:45:49.969Z,971.86
2017-09-05T02:46:49.965Z,971.88
2017-09-05T02:47:49.957Z,971.87
2017-09-05T02:48:49.951Z,971.88
2017-09-05T02:49:49.945Z,971.89
2017-09-05T02:50:49.940Z,971.84
2017-09-05T02:51:49.934Z,971.85
2017-09-05T02:52:49.930Z,971.85
2017-09-05T02:53:49.921Z,971.83
2017-09-05T02:54:49.917Z,971.82
2017-09-05T02:55:49.912Z,971.79
2017-09-05T02:56:49.908Z,971.79
2017-09-05T02:57:49.897Z,971.8
2017-09-05T02:58:49.893Z,971.78
2017-09-05T02:59:49.887Z,971.81
2017-09-05T03:00:49.880Z,971.79
2017-09-05T03:01:49.880Z,971.76
2017-09-05T03:02:49.870Z,971.79
2017-09-05T03:03:49.964Z,971.84
2017-09-05T03:04:49.860Z,971.86
2017-09-05T03:05:49.852Z,971.82
2017-09-05T03:06:49.847Z,971.82
2017-09-05T03:07:49.839Z,971.89
2017-09-05T03:08:49.834Z,971.83
2017-09-05T03:09:49.828Z,971.82
2017-09-05T03:10:49.822Z,971.78
2017-09-05T03:11:49.817Z,971.84
2017-09-05T03:12:49.814Z,971.77
2017-09-05T03:13:49.804Z,971.79
2017-09-05T03:14:49.798Z,971.77
2017-09-05T03:15:49.791Z,971.76
2017-09-05T03:16:49.787Z,971.77
2017-09-05T03:17:49.886Z,971.73
2017-09-05T03:18:49.775Z,971.75
2017-09-05T03:19:49.769Z,971.78
2017-09-05T03:20:49.763Z,971.7
2017-09-05T03:21:49.758Z,971.74
2017-09-05T03:22:49.750Z,971.71
2017-09-05T03:23:49.745Z,971.64
2017-09-05T03:24:49.740Z,971.66
2017-09-05T03:25:49.734Z,971.67
2017-09-05T03:26:49.728Z,971.66
2017-09-05T03:27:49.722Z,971.68
2017-09-05T03:28:49.716Z,971.66
2017-09-05T03:29:49.711Z,971.64
2017-09-05T03:30:49.705Z,971.66
2017-09-05T03:31:49.729Z,971.65
2017-09-05T03:32:49.692Z,971.63
2017-09-05T03:33:49.685Z,971.66
2017-09-05T03:34:49.680Z,971.65
2017-09-05T03:35:49.675Z,971.62
2017-09-05T03:36:49.669Z,971.67
2017-09-05T03:37:49.663Z,971.6
2017-09-05T03:38:49.658Z,971.63
2017-09-05T03:39:49.652Z,971.61
2017-09-05T03:40:49.645Z,971.6
2017-09-05T03:41:49.639Z,971.61
2017-09-05T03:42:49.634Z,971.63
2017-09-05T03:43:49.627Z,971.61
2017-09-05T03:44:49.621Z,971.6
2017-09-05T03:45:49.620Z,971.6
2017-09-05T03:46:49.609Z,971.62
2017-09-05T03:47:49.603Z,971.63
2017-09-05T03:48:49.597Z,971.64
2017-09-05T03:49:49.591Z,971.64
2017-09-05T03:50:49.585Z,971.62
2017-09-05T03:51:49.579Z,971.64
2017-09-05T03:52:49.572Z,971.64
2017-09-05T03:53:49.569Z,971.65
2017-09-05T03:54:49.561Z,971.64
2017-09-05T03:55:49.556Z,971.6
2017-09-05T03:56:49.551Z,971.59
2017-09-05T03:57:49.543Z,971.58
2017-09-05T03:58:49.539Z,971.61
2017-09-05T03:59:49.531Z,971.56
2017-09-05T04:00:49.526Z,971.59
2017-09-05T04:01:49.521Z,971.65
2017-09-05T04:02:49.513Z,971.63
2017-09-05T04:03:49.509Z,971.64
2017-09-05T04:04:49.502Z,971.62
2017-09-05T04:05:49.529Z,971.61
2017-09-05T04:06:49.491Z,971.6
2017-09-05T04:07:49.489Z,971.59
2017-09-05T04:08:49.478Z,971.61
2017-09-05T04:09:49.473Z,971.64
2017-09-05T04:10:49.465Z,971.61
2017-09-05T04:11:49.460Z,971.61
2017-09-05T04:12:49.454Z,971.62
2017-09-05T04:13:49.448Z,971.61
2017-09-05T04:14:49.442Z,971.62
2017-09-05T04:15:49.437Z,971.64
2017-09-05T04:16:49.432Z,971.63
2017-09-05T04:17:49.424Z,971.66
2017-09-05T04:18:49.418Z,971.67
2017-09-05T04:19:49.413Z,971.69
2017-09-05T04:20:49.407Z,971.71
2017-09-05T04:21:49.401Z,971.72
2017-09-05T04:22:49.396Z,971.69
2017-09-05T04:23:49.390Z,971.73
2017-09-05T04:24:49.383Z,971.71
2017-09-05T04:25:49.377Z,971.75
2017-09-05T04:26:49.372Z,971.79
2017-09-05T04:27:49.366Z,971.77
2017-09-05T04:28:49.359Z,971.79
2017-09-05T04:29:49.354Z,971.78
2017-09-05T04:30:49.348Z,971.75
2017-09-05T04:31:49.341Z,971.76
2017-09-05T04:32:49.336Z,971.8
2017-09-05T04:33:49.329Z,971.79
2017-09-05T04:34:49.324Z,971.81
2017-09-05T04:35:49.318Z,971.82
2017-09-05T04:36:49.316Z,971.84
2017-09-05T04:37:49.406Z,971.84
2017-09-05T04:38:49.300Z,971.86
2017-09-05T04:39:49.294Z,971.87
2017-09-05T04:40:49.288Z,971.86
2017-09-05T04:41:49.282Z,971.86
2017-09-05T04:42:49.376Z,971.9
2017-09-05T04:43:49.270Z,971.88
2017-09-05T04:44:49.265Z,971.89
2017-09-05T04:45:49.259Z,971.87
2017-09-05T04:46:49.251Z,971.89
2017-09-05T04:47:49.246Z,971.91
2017-09-05T04:48:49.247Z,971.88
2017-09-05T04:49:49.236Z,971.87
2017-09-05T04:50:49.228Z,971.83
2017-09-05T04:51:49.224Z,971.85
2017-09-05T04:52:49.218Z,971.85
2017-09-05T04:53:49.210Z,971.9
2017-09-05T04:54:49.205Z,971.88
2017-09-05T04:55:49.198Z,971.92
2017-09-05T04:56:49.192Z,971.92
2017-09-05T04:57:49.186Z,971.92
2017-09-05T04:58:49.181Z,971.91
2017-09-05T04:59:49.175Z,971.91
2017-09-05T05:00:49.170Z,971.93
2017-09-05T05:01:49.164Z,971.97
2017-09-05T05:02:49.258Z,971.93
2017-09-05T05:03:49.151Z,971.97
2017-09-05T05:04:49.145Z,971.99
2017-09-05T05:05:49.138Z,971.98
2017-09-05T05:06:49.134Z,972
2017-09-05T05:07:49.127Z,972.02
2017-09-05T05:08:49.120Z,972.02
2017-09-05T05:09:49.114Z,972.05
2017-09-05T05:10:49.110Z,972.02
2017-09-05T05:11:49.103Z,972.02
2017-09-05T05:12:49.096Z,972.04
2017-09-05T05:13:49.091Z,972.04
2017-09-05T05:14:49.085Z,972.05
2017-09-05T05:15:49.078Z,972.05
2017-09-05T05:16:49.072Z,972.05
2017-09-05T05:17:49.067Z,972.05
2017-09-05T05:18:49.161Z,972.03
2017-09-05T05:19:49.055Z,972.04
2017-09-05T05:20:49.050Z,972.03
2017-09-05T05:21:49.043Z,972.05
2017-09-05T05:22:49.038Z,972.07
2017-09-05T05:23:49.030Z,972.04
2017-09-05T05:24:49.026Z,972.07
2017-09-05T05:25:49.019Z,972.05
2017-09-05T05:26:49.013Z,972.05
2017-09-05T05:27:49.006Z,972.04
2017-09-05T05:28:49.001Z,972.04
2017-09-05T05:29:48.997Z,971.98
2017-09-05T05:30:48.989Z,972.01
2017-09-05T05:31:48.983Z,972.02
2017-09-05T05:32:48.978Z,972
2017-09-05T05:33:48.972Z,972.02
2017-09-05T05:34:48.965Z,971.99
2017-09-05T05:35:48.959Z,972.02
2017-09-05T05:36:48.954Z,972.02
2017-09-05T05:37:48.946Z,972.04
2017-09-05T05:38:48.941Z,972.03
2017-09-05T05:39:48.935Z,972.05
2017-09-05T05:40:48.929Z,972.07
2017-09-05T05:41:48.922Z,972.1
2017-09-05T05:42:48.917Z,972.07
2017-09-05T05:43:48.911Z,972.07
2017-09-05T05:44:49.006Z,972.04
2017-09-05T05:45:48.898Z,972.02
2017-09-05T05:46:48.894Z,972.01
2017-09-05T05:47:48.889Z,971.99
2017-09-05T05:48:48.880Z,971.97
2017-09-05T05:49:48.875Z,971.99
2017-09-05T05:50:48.870Z,971.98
2017-09-05T05:51:48.864Z,971.97
2017-09-05T05:52:48.857Z,971.97
2017-09-05T05:53:48.851Z,971.98
2017-09-05T05:54:48.846Z,971.99
2017-09-05T05:55:48.841Z,971.96
2017-09-05T05:56:48.834Z,971.95
2017-09-05T05:57:48.828Z,971.99
2017-09-05T05:58:48.823Z,971.93
2017-09-05T05:59:48.815Z,971.95
2017-09-05T06:00:48.808Z,971.96
2017-09-05T06:01:48.804Z,971.97
2017-09-05T06:02:48.798Z,971.96
2017-09-05T06:03:48.791Z,971.97
2017-09-05T06:04:48.786Z,971.97
2017-09-05T06:05:48.780Z,971.93
2017-09-05T06:06:48.773Z,971.91
2017-09-05T06:07:48.766Z,971.91
2017-09-05T06:08:48.762Z,971.96
2017-09-05T06:09:48.755Z,971.97
2017-09-05T06:10:48.749Z,971.99
2017-09-05T06:11:48.744Z,972
2017-09-05T06:12:48.737Z,972
2017-09-05T06:13:48.731Z,972.03
2017-09-05T06:14:48.726Z,972.01
2017-09-05T06:15:48.720Z,972.03
2017-09-05T06:16:48.713Z,972.03
2017-09-05T06:17:48.706Z,972.05
2017-09-05T06:18:48.701Z,972.09
2017-09-05T06:19:48.696Z,972.11
2017-09-05T06:20:48.691Z,972.09
2017-09-05T06:21:48.683Z,972.1
2017-09-05T06:22:48.678Z,972.13
2017-09-05T06:23:48.773Z,972.13
2017-09-05T06:24:48.666Z,972.16
2017-09-05T06:25:48.660Z,972.15
2017-09-05T06:26:48.654Z,972.14
2017-09-05T06:27:48.648Z,972.09
2017-09-05T06:28:48.641Z,972.13
2017-09-05T06:29:48.736Z,972.15
2017-09-05T06:30:48.631Z,972.16
2017-09-05T06:31:48.623Z,972.14
2017-09-05T06:32:48.618Z,972.22
2017-09-05T06:33:48.613Z,972.2
2017-09-05T06:34:48.607Z,972.16
2017-09-05T06:35:48.600Z,972.18
2017-09-05T06:36:48.594Z,972.21
2017-09-05T06:37:48.589Z,972.17
2017-09-05T06:38:48.582Z,972.16
2017-09-05T06:39:48.575Z,972.17
2017-09-05T06:40:48.571Z,972.15
2017-09-05T06:41:48.564Z,972.2
2017-09-05T06:42:48.560Z,972.2
2017-09-05T06:43:48.552Z,972.19
2017-09-05T06:44:48.546Z,972.19
2017-09-05T06:45:48.541Z,972.18
2017-09-05T06:46:48.535Z,972.17
2017-09-05T06:47:48.529Z,972.16
2017-09-05T06:48:48.522Z,972.18
2017-09-05T06:49:48.518Z,972.17
2017-09-05T06:50:48.510Z,972.17
2017-09-05T06:51:48.505Z,972.18
2017-09-05T06:52:48.500Z,972.25
2017-09-05T06:53:48.496Z,972.23
2017-09-05T06:54:48.487Z,972.25
2017-09-05T06:55:48.481Z,972.22
2017-09-05T06:56:48.475Z,972.25
2017-09-05T06:57:48.470Z,972.26
2017-09-05T06:58:48.463Z,972.24
2017-09-05T06:59:48.459Z,972.27
2017-09-05T07:00:48.457Z,972.26
2017-09-05T07:01:48.446Z,972.25
2017-09-05T07:02:48.440Z,972.28
2017-09-05T07:03:48.433Z,972.29
2017-09-05T07:04:48.429Z,972.24
2017-09-05T07:05:48.521Z,972.25
2017-09-05T07:06:48.417Z,972.26
2017-09-05T07:07:48.410Z,972.26
2017-09-05T07:08:48.405Z,972.26
2017-09-05T07:09:48.398Z,972.24
2017-09-05T07:10:48.394Z,972.28
2017-09-05T07:11:48.386Z,972.29
2017-09-05T07:12:48.380Z,972.32
2017-09-05T07:13:48.374Z,972.32
2017-09-05T07:14:48.368Z,972.33
2017-09-05T07:15:48.364Z,972.36
2017-09-05T07:16:48.356Z,972.34
2017-09-05T07:17:48.352Z,972.35
2017-09-05T07:18:48.345Z,972.36
2017-09-05T07:19:48.339Z,972.37
2017-09-05T07:20:48.333Z,972.36
2017-09-05T07:21:48.328Z,972.39
2017-09-05T07:22:48.322Z,972.36
2017-09-05T07:23:48.315Z,972.37
2017-09-05T07:24:48.312Z,972.33
2017-09-05T07:25:48.307Z,972.35
2017-09-05T07:26:48.299Z,972.34
2017-09-05T07:27:48.291Z,972.32
2017-09-05T07:28:48.286Z,972.37
2017-09-05T07:29:48.280Z,972.34
2017-09-05T07:30:48.276Z,972.34
2017-09-05T07:31:48.273Z,972.34
2017-09-05T07:32:48.264Z,972.31
2017-09-05T07:33:48.258Z,972.34
2017-09-05T07:34:48.253Z,972.35
2017-09-05T07:35:48.247Z,972.39
2017-09-05T07:36:48.242Z,972.35
2017-09-05T07:37:48.236Z,972.36
2017-09-05T07:38:48.228Z,972.42
2017-09-05T07:39:48.224Z,972.34
2017-09-05T07:40:48.217Z,972.37
2017-09-05T07:41:48.212Z,972.34
2017-09-05T07:42:48.205Z,972.36
2017-09-05T07:43:48.200Z,972.42
2017-09-05T07:44:48.196Z,972.38
2017-09-05T07:45:48.189Z,972.4
2017-09-05T07:46:48.183Z,972.41
2017-09-05T07:47:48.177Z,972.41
2017-09-05T07:48:48.171Z,972.41
2017-09-05T07:49:48.167Z,972.42
2017-09-05T07:50:48.164Z,972.4
2017-09-05T07:51:48.156Z,972.38
2017-09-05T07:52:48.149Z,972.38
2017-09-05T07:53:48.142Z,972.38
2017-09-05T07:54:48.136Z,972.36
2017-09-05T07:55:48.132Z,972.37
2017-09-05T07:56:48.125Z,972.37
2017-09-05T07:57:48.119Z,972.38
2017-09-05T07:58:48.114Z,972.38
2017-09-05T07:59:48.111Z,972.34
2017-09-05T08:00:48.103Z,972.37
2017-09-05T08:01:48.097Z,972.33
2017-09-05T08:02:48.092Z,972.34
2017-09-05T08:03:48.086Z,972.33
2017-09-05T08:04:48.079Z,972.33
2017-09-05T08:05:48.074Z,972.35
2017-09-05T08:06:48.071Z,972.35
2017-09-05T08:07:48.062Z,972.39
2017-09-05T08:08:48.057Z,972.38
2017-09-05T08:09:48.051Z,972.34
2017-09-05T08:10:48.045Z,972.39
2017-09-05T08:11:48.039Z,972.38
2017-09-05T08:12:48.135Z,972.38
2017-09-05T08:13:48.029Z,972.43
2017-09-05T08:14:48.023Z,972.41
2017-09-05T08:15:48.017Z,972.45
2017-09-05T08:16:48.012Z,972.36
2017-09-05T08:17:48.106Z,972.38
2017-09-05T08:18:48.000Z,972.38
2017-09-05T08:19:47.994Z,972.34
2017-09-05T08:20:47.994Z,972.32
2017-09-05T08:21:47.983Z,972.35
2017-09-05T08:22:47.978Z,972.36
2017-09-05T08:23:48.006Z,972.34
2017-09-05T08:24:48.069Z,972.32
2017-09-05T08:25:47.960Z,972.32
2017-09-05T08:26:47.956Z,972.34
2017-09-05T08:27:47.949Z,972.32
2017-09-05T08:28:47.946Z,972.29
2017-09-05T08:29:47.940Z,972.28
2017-09-05T08:30:47.934Z,972.3
2017-09-05T08:31:47.927Z,972.33
2017-09-05T08:32:47.923Z,972.32
2017-09-05T08:33:47.915Z,972.33
2017-09-05T08:34:47.911Z,972.34
2017-09-05T08:35:48.005Z,972.41
2017-09-05T08:36:47.898Z,972.41
2017-09-05T08:37:47.893Z,972.39
2017-09-05T08:38:47.888Z,972.38
2017-09-05T08:39:47.883Z,972.37
2017-09-05T08:40:47.978Z,972.37
2017-09-05T08:41:47.871Z,972.35
2017-09-05T08:42:47.867Z,972.35
2017-09-05T08:43:47.860Z,972.34
2017-09-05T08:44:47.854Z,972.36
2017-09-05T08:45:47.849Z,972.36
2017-09-05T08:46:47.944Z,972.36
2017-09-05T08:47:47.838Z,972.35
2017-09-05T08:48:47.832Z,972.37
2017-09-05T08:49:47.825Z,972.34
2017-09-05T08:50:47.822Z,972.34
2017-09-05T08:51:47.816Z,972.38
2017-09-05T08:52:47.809Z,972.37
2017-09-05T08:53:47.804Z,972.36
2017-09-05T08:54:47.800Z,972.38
2017-09-05T08:55:47.792Z,972.39
2017-09-05T08:56:47.789Z,972.41
2017-09-05T08:57:47.782Z,972.38
2017-09-05T08:58:47.775Z,972.38
2017-09-05T08:59:47.771Z,972.36
2017-09-05T09:00:47.766Z,972.36
2017-09-05T09:01:47.760Z,972.36
2017-09-05T09:02:47.754Z,972.38
2017-09-05T09:03:47.748Z,972.36
2017-09-05T09:04:47.744Z,972.34
2017-09-05T09:05:47.739Z,972.34
2017-09-05T09:06:47.734Z,972.32
2017-09-05T09:07:47.727Z,972.33
2017-09-05T09:08:47.722Z,972.3
2017-09-05T09:09:47.718Z,972.37
2017-09-05T09:10:47.713Z,972.36
2017-09-05T09:11:47.706Z,972.37
2017-09-05T09:12:47.700Z,972.38
2017-09-05T09:13:47.693Z,972.34
2017-09-05T09:14:47.695Z,972.32
2017-09-05T09:15:47.684Z,972.33
2017-09-05T09:16:47.678Z,972.34
2017-09-05T09:17:47.673Z,972.31
2017-09-05T09:18:47.667Z,972.34
2017-09-05T09:19:47.661Z,972.33
2017-09-05T09:20:47.655Z,972.34
2017-09-05T09:21:47.649Z,972.28
2017-09-05T09:22:47.645Z,972.32
2017-09-05T09:23:47.639Z,972.32
2017-09-05T09:24:47.633Z,972.32
2017-09-05T09:25:47.628Z,972.28
2017-09-05T09:26:47.624Z,972.27
2017-09-05T09:27:47.617Z,972.26
2017-09-05T09:28:47.611Z,972.31
2017-09-05T09:29:47.606Z,972.32
2017-09-05T09:30:47.601Z,972.35
2017-09-05T09:31:47.694Z,972.33
2017-09-05T09:32:47.622Z,972.35
2017-09-05T09:33:47.584Z,972.37
2017-09-05T09:34:47.578Z,972.36
2017-09-05T09:35:47.573Z,972.31
2017-09-05T09:36:47.574Z,972.32
2017-09-05T09:37:47.562Z,972.34
2017-09-05T09:38:47.555Z,972.31
2017-09-05T09:39:47.550Z,972.31
2017-09-05T09:40:47.545Z,972.29
2017-09-05T09:41:47.540Z,972.27
2017-09-05T09:42:47.533Z,972.29
2017-09-05T09:43:47.529Z,972.3
2017-09-05T09:44:47.524Z,972.27
2017-09-05T09:45:47.518Z,972.28
2017-09-05T09:46:47.512Z,972.28
2017-09-05T09:47:47.506Z,972.28
2017-09-05T09:48:47.501Z,972.24
2017-09-05T09:49:47.496Z,972.28
2017-09-05T09:50:47.493Z,972.27
2017-09-05T09:51:47.485Z,972.28
2017-09-05T09:52:47.479Z,972.23
2017-09-05T09:53:47.473Z,972.22
2017-09-05T09:54:47.472Z,972.21
2017-09-05T09:55:47.463Z,972.24
2017-09-05T09:56:47.459Z,972.22
2017-09-05T09:57:47.452Z,972.24
2017-09-05T09:58:47.447Z,972.22
2017-09-05T09:59:47.442Z,972.21
2017-09-05T10:00:47.435Z,972.19
2017-09-05T10:01:47.431Z,972.24
2017-09-05T10:02:47.425Z,972.22
2017-09-05T10:03:47.419Z,972.19
2017-09-05T10:04:47.414Z,972.2
2017-09-05T10:05:47.410Z,972.17
2017-09-05T10:06:47.404Z,972.16
2017-09-05T10:07:47.399Z,972.13
2017-09-05T10:08:47.392Z,972.17
2017-09-05T10:09:47.387Z,972.13
2017-09-05T10:10:47.483Z,972.12
2017-09-05T10:11:47.379Z,972.12
2017-09-05T10:12:47.371Z,972.11
2017-09-05T10:13:47.367Z,972.1
2017-09-05T10:14:47.360Z,972.12
2017-09-05T10:15:47.456Z,972.13
2017-09-05T10:16:47.357Z,972.1
2017-09-05T10:17:47.344Z,972.1
2017-09-05T10:18:47.341Z,972.07
2017-09-05T10:19:47.334Z,972.07
2017-09-05T10:20:47.330Z,972.07
2017-09-05T10:21:47.324Z,971.98
2017-09-05T10:22:47.317Z,972.02
2017-09-05T10:23:47.312Z,972.02
2017-09-05T10:24:47.308Z,971.98
2017-09-05T10:25:47.303Z,971.96
2017-09-05T10:26:47.296Z,971.99
2017-09-05T10:27:47.321Z,971.99
2017-09-05T10:28:47.286Z,971.96
2017-09-05T10:29:47.281Z,972.01
2017-09-05T10:30:47.276Z,971.93
2017-09-05T10:31:47.272Z,971.92
2017-09-05T10:32:47.265Z,971.9
2017-09-05T10:33:47.359Z,971.85
2017-09-05T10:34:47.254Z,971.84
2017-09-05T10:35:47.249Z,971.86
2017-09-05T10:36:47.244Z,971.84
2017-09-05T10:37:47.243Z,971.82
2017-09-05T10:38:47.233Z,971.84
2017-09-05T10:39:47.229Z,971.83
2017-09-05T10:40:47.224Z,971.83
2017-09-05T10:41:47.218Z,971.86
2017-09-05T10:42:47.214Z,971.82
2017-09-05T10:43:47.310Z,971.8
2017-09-05T10:44:47.202Z,971.79
2017-09-05T10:45:47.199Z,971.77
2017-09-05T10:46:47.192Z,971.78
2017-09-05T10:47:47.187Z,971.77
2017-09-05T10:48:47.181Z,971.7
2017-09-05T10:49:47.177Z,971.77
2017-09-05T10:50:47.172Z,971.71
2017-09-05T10:51:47.166Z,971.71
2017-09-05T10:52:47.167Z,971.72
2017-09-05T10:53:47.156Z,971.7
2017-09-05T10:54:47.149Z,971.69
2017-09-05T10:55:47.144Z,971.66
2017-09-05T10:56:47.139Z,971.6
2017-09-05T10:57:47.134Z,971.64
2017-09-05T10:58:47.130Z,971.63
2017-09-05T10:59:47.125Z,971.61
2017-09-05T11:00:47.118Z,971.59
2017-09-05T11:01:47.113Z,971.64
2017-09-05T11:02:47.108Z,971.6
2017-09-05T11:03:47.103Z,971.61
2017-09-05T11:04:47.099Z,971.55
2017-09-05T11:05:47.093Z,971.58
2017-09-05T11:06:47.187Z,971.55
2017-09-05T11:07:47.082Z,971.52
2017-09-05T11:08:47.077Z,971.54
2017-09-05T11:09:47.071Z,971.54
2017-09-05T11:10:47.065Z,971.51
2017-09-05T11:11:47.061Z,971.57
2017-09-05T11:12:47.058Z,971.52
2017-09-05T11:13:47.050Z,971.54
2017-09-05T11:14:47.045Z,971.52
2017-09-05T11:15:47.042Z,971.46
2017-09-05T11:16:47.034Z,971.48
2017-09-05T11:17:47.029Z,971.46
2017-09-05T11:18:47.024Z,971.48
2017-09-05T11:19:47.018Z,971.49
2017-09-05T11:20:47.014Z,971.45
2017-09-05T11:21:47.008Z,971.45
2017-09-05T11:22:47.003Z,971.47
2017-09-05T11:23:46.998Z,971.46
2017-09-05T11:24:46.993Z,971.46
2017-09-05T11:25:46.987Z,971.44
2017-09-05T11:26:46.982Z,971.41
2017-09-05T11:27:46.977Z,971.45
2017-09-05T11:28:46.972Z,971.42
2017-09-05T11:29:46.967Z,971.4
2017-09-05T11:30:46.962Z,971.38
2017-09-05T11:31:47.057Z,971.38
2017-09-05T11:32:46.950Z,971.38
2017-09-05T11:33:46.947Z,971.36
2017-09-05T11:34:46.941Z,971.32
2017-09-05T11:35:46.936Z,971.31
2017-09-05T11:36:46.932Z,971.32
2017-09-05T11:37:46.925Z,971.3
2017-09-05T11:38:46.921Z,971.31
2017-09-05T11:39:46.914Z,971.3
2017-09-05T11:40:46.910Z,971.32
2017-09-05T11:41:46.905Z,971.3
2017-09-05T11:42:46.900Z,971.3
2017-09-05T11:43:46.893Z,971.29
2017-09-05T11:44:46.989Z,971.27
2017-09-05T11:45:46.884Z,971.26
2017-09-05T11:46:46.878Z,971.25
2017-09-05T11:47:46.874Z,971.27
2017-09-05T11:48:46.869Z,971.25
2017-09-05T11:49:46.865Z,971.27
2017-09-05T11:50:46.858Z,971.25
2017-09-05T11:51:46.852Z,971.21
2017-09-05T11:52:46.848Z,971.22
2017-09-05T11:53:46.842Z,971.2
2017-09-05T11:54:46.938Z,971.2
2017-09-05T11:55:46.834Z,971.2
2017-09-05T11:56:46.828Z,971.17
2017-09-05T11:57:46.823Z,971.16
2017-09-05T11:58:46.818Z,971.12
2017-09-05T11:59:46.812Z,971.14
2017-09-05T12:00:46.806Z,971.14
2017-09-05T12:01:46.801Z,971.11
2017-09-05T12:02:46.797Z,971.11
2017-09-05T12:03:46.792Z,971.09
2017-09-05T12:04:46.788Z,971.1
2017-09-05T12:05:46.784Z,971.14
2017-09-05T12:06:46.776Z,971.09
2017-09-05T12:07:46.771Z,971.07
2017-09-05T12:08:46.766Z,971.07
2017-09-05T12:09:46.761Z,971.07
2017-09-05T12:10:46.757Z,971.07
2017-09-05T12:11:46.751Z,971.07
2017-09-05T12:12:46.746Z,971.06
2017-09-05T12:13:46.740Z,971.07
2017-09-05T12:14:46.737Z,971.03
2017-09-05T12:15:46.731Z,971.01
2017-09-05T12:16:46.725Z,971
2017-09-05T12:17:46.720Z,971
2017-09-05T12:18:46.718Z,971.01
2017-09-05T12:19:46.710Z,970.95
2017-09-05T12:20:46.706Z,970.97
2017-09-05T12:21:46.800Z,970.96
2017-09-05T12:22:46.696Z,970.9
2017-09-05T12:23:46.690Z,970.88
2017-09-05T12:24:46.685Z,970.88
2017-09-05T12:25:46.681Z,970.89
2017-09-05T12:26:46.676Z,970.88
2017-09-05T12:27:46.670Z,970.84
2017-09-05T12:28:46.666Z,970.81
2017-09-05T12:29:46.661Z,970.77
2017-09-05T12:30:46.655Z,970.8